Time;durP1;ratioP1;P1;durP2;ratioP2;P2;SDS_P1;SDS_P2;PMS_P1;PMS_P2;Temp;Humidity;BMP_temperature;BMP_pressure;BME280_temperature;BME280_humidity;BME280_pressure;Samples;Min_cycle;Max_cycle;Signal;HPM_P1;HPM_P2
2022/01/17 00:01:13;;;;;;;31.50;16.98;;;-1.60;99.90;;;;;;5117252;28;20170;-72
2022/01/17 00:03:39;;;;;;;26.33;15.02;;;-1.60;99.90;;;;;;5128431;28;20194;-72
2022/01/17 00:06:05;;;;;;;25.95;17.38;;;-1.70;99.90;;;;;;5128556;28;20196;-72
2022/01/17 00:08:33;;;;;;;25.15;15.82;;;-1.70;99.90;;;;;;5129765;28;20214;-72
2022/01/17 00:10:59;;;;;;;30.40;16.05;;;-1.80;99.90;;;;;;5129744;28;20194;-72
2022/01/17 00:13:29;;;;;;;29.63;15.50;;;-1.80;99.90;;;;;;5129783;28;20174;-71
2022/01/17 00:16:39;;;;;;;28.25;16.55;;;-1.80;99.90;;;;;;5129639;28;20155;-72
2022/01/17 00:21:16;;;;;;;34.05;15.35;;;-1.80;99.90;;;;;;5129777;28;20190;-71
2022/01/17 00:23:43;;;;;;;29.42;16.10;;;-1.80;99.90;;;;;;5129462;28;20197;-71
2022/01/17 00:26:09;;;;;;;34.42;17.10;;;-1.50;99.90;;;;;;5110222;28;20186;-71
2022/01/17 00:28:37;;;;;;;27.00;15.20;;;-1.40;99.90;;;;;;5093140;28;20664;-72
2022/01/17 00:31:05;;;;;;;32.97;19.38;;;-1.40;99.90;;;;;;5094259;28;20280;-72
2022/01/17 00:33:32;;;;;;;34.65;16.42;;;-1.40;99.90;;;;;;5111313;28;20186;-71
2022/01/17 00:35:58;;;;;;;30.42;16.05;;;-1.50;99.90;;;;;;5111217;28;20167;-72
2022/01/17 00:38:25;;;;;;;27.80;15.23;;;-1.60;99.90;;;;;;5111030;28;20218;-72
2022/01/17 00:40:50;;;;;;;34.17;16.42;;;-1.80;99.90;;;;;;5129441;28;20165;-71
2022/01/17 00:43:16;;;;;;;33.00;17.92;;;-1.90;99.90;;;;;;5129547;28;20151;-72
2022/01/17 00:45:44;;;;;;;30.52;16.33;;;-1.80;99.90;;;;;;5129386;28;20163;-72
2022/01/17 00:48:12;;;;;;;35.60;17.58;;;-1.80;99.90;;;;;;5129271;28;20224;-71
2022/01/17 00:50:39;;;;;;;26.13;16.83;;;-1.80;99.90;;;;;;5129374;28;20155;-72
2022/01/17 00:53:07;;;;;;;31.30;15.50;;;-1.60;99.90;;;;;;5129481;28;20151;-72
2022/01/17 00:55:35;;;;;;;27.20;15.82;;;-1.60;99.90;;;;;;5111097;28;20620;-72
2022/01/17 00:58:01;;;;;;;28.52;16.73;;;-1.50;99.90;;;;;;5120483;28;20194;-71
2022/01/17 01:00:27;;;;;;;31.27;16.90;;;-1.50;99.90;;;;;;5144991;27;20232;-71
2022/01/17 01:02:55;;;;;;;35.17;18.08;;;-1.50;99.90;;;;;;5133173;28;20163;-72
2022/01/17 01:05:21;;;;;;;28.95;16.63;;;-1.60;99.90;;;;;;5132994;28;20159;-71
2022/01/17 01:07:51;;;;;;;28.00;15.00;;;-1.70;99.90;;;;;;5132851;28;20182;-72
2022/01/17 01:10:20;;;;;;;36.22;18.33;;;-1.70;99.90;;;;;;5132901;28;20214;-72
2022/01/17 01:12:48;;;;;;;33.53;15.80;;;-1.80;99.90;;;;;;5115009;27;20248;-73
2022/01/17 01:15:20;;;;;;;35.80;16.95;;;-1.70;99.90;;;;;;5134975;27;20162;-71
2022/01/17 01:17:50;;;;;;;31.33;16.73;;;-1.60;99.90;;;;;;5153361;27;20190;-72
2022/01/17 01:28:34;;;;;;;30.27;17.02;;;-1.60;99.90;;;;;;5153028;27;20193;-72
2022/01/17 01:31:04;;;;;;;29.52;16.65;;;-1.60;99.90;;;;;;5131215;27;20186;-71
2022/01/17 01:33:34;;;;;;;33.55;18.45;;;-1.50;99.90;;;;;;5132427;28;20155;-72
2022/01/17 01:36:05;;;;;;;26.40;16.05;;;-1.50;99.90;;;;;;5113975;28;20186;-72
2022/01/17 01:38:32;;;;;;;28.20;15.98;;;-1.60;99.90;;;;;;5132240;28;20187;-72
2022/01/17 01:40:58;;;;;;;29.52;18.75;;;-1.60;99.90;;;;;;5132414;28;20218;-72
2022/01/17 01:43:24;;;;;;;32.17;17.08;;;-1.60;99.90;;;;;;5113947;28;20179;-72
2022/01/17 01:45:57;;;;;;;28.98;16.20;;;-1.70;99.90;;;;;;5132032;28;20159;-72
2022/01/17 01:48:24;;;;;;;33.70;17.42;;;-1.70;99.90;;;;;;5132052;28;20244;-72
2022/01/17 01:50:50;;;;;;;37.70;17.13;;;-1.70;99.90;;;;;;5113441;28;20167;-72
2022/01/17 01:53:16;;;;;;;32.70;18.38;;;-1.90;99.90;;;;;;5131948;28;20158;-72
2022/01/17 01:55:42;;;;;;;33.00;17.10;;;-1.90;99.90;;;;;;5131929;28;20163;-72
2022/01/17 01:58:09;;;;;;;25.98;16.30;;;-2.00;99.90;;;;;;5113355;28;20199;-72
2022/01/17 02:00:36;;;;;;;28.50;16.83;;;-2.20;99.90;;;;;;5119179;27;20230;-72
2022/01/17 02:03:04;;;;;;;30.58;16.48;;;-2.20;99.90;;;;;;5151583;27;20158;-71
2022/01/17 02:05:30;;;;;;;29.52;15.45;;;-2.20;99.90;;;;;;5151748;27;20228;-72
2022/01/17 02:07:56;;;;;;;29.42;16.80;;;-2.30;99.90;;;;;;5151171;27;20150;-71
2022/01/17 02:10:22;;;;;;;29.50;16.67;;;-2.30;99.90;;;;;;5152121;27;20706;-71
2022/01/17 02:12:48;;;;;;;35.85;18.25;;;-2.20;99.90;;;;;;5152235;27;20185;-72
2022/01/17 02:15:16;;;;;;;27.83;18.02;;;-2.30;99.90;;;;;;5133792;27;20262;-72
2022/01/17 02:17:53;;;;;;;27.30;16.15;;;-2.30;99.90;;;;;;5133708;27;20197;-72
2022/01/17 02:20:38;;;;;;;36.97;19.73;;;-2.40;99.90;;;;;;5152228;27;20248;-72
2022/01/17 02:23:06;;;;;;;32.85;15.85;;;-2.50;99.90;;;;;;5133605;27;20637;-72
2022/01/17 02:25:33;;;;;;;32.97;16.88;;;-2.50;99.90;;;;;;5151981;27;20154;-71
2022/01/17 02:27:59;;;;;;;31.08;15.75;;;-2.30;99.90;;;;;;5133439;27;20166;-71
2022/01/17 02:30:26;;;;;;;23.88;14.30;;;-2.40;99.90;;;;;;5151832;27;20222;-71
2022/01/17 02:32:54;;;;;;;32.30;15.98;;;-2.30;99.90;;;;;;5132563;27;20663;-71
2022/01/17 02:35:23;;;;;;;33.40;16.70;;;-2.20;99.90;;;;;;5131172;28;20151;-71
2022/01/17 02:37:57;;;;;;;28.30;16.02;;;-2.10;99.90;;;;;;5131228;28;20151;-71
2022/01/17 02:40:24;;;;;;;27.42;16.35;;;-2.20;99.90;;;;;;5112452;28;20198;-71
2022/01/17 02:43:00;;;;;;;25.67;15.15;;;-2.10;99.90;;;;;;5131086;28;20155;-71
2022/01/17 02:45:33;;;;;;;26.95;17.35;;;-2.10;99.90;;;;;;5130962;28;20177;-71
2022/01/17 02:48:00;;;;;;;28.20;16.02;;;-2.20;99.90;;;;;;5130980;28;20638;-71
2022/01/17 02:50:27;;;;;;;31.50;15.45;;;-2.30;99.90;;;;;;5130869;28;20259;-71
2022/01/17 02:52:58;;;;;;;26.92;15.48;;;-2.40;99.90;;;;;;5112522;28;20221;-71
2022/01/17 02:55:24;;;;;;;25.80;15.38;;;-2.40;99.90;;;;;;5130884;28;20151;-71
2022/01/17 02:57:50;;;;;;;28.58;15.40;;;-2.30;99.90;;;;;;5114909;27;20208;-71
2022/01/17 03:00:16;;;;;;;29.63;15.85;;;-2.20;99.90;;;;;;5132409;27;20234;-71
2022/01/17 03:02:46;;;;;;;31.30;16.83;;;-2.20;99.90;;;;;;5151256;27;20162;-71
2022/01/17 03:05:12;;;;;;;34.30;17.13;;;-2.10;99.90;;;;;;5132549;27;20165;-71
2022/01/17 03:07:41;;;;;;;30.10;15.65;;;-2.00;99.90;;;;;;5151202;27;20158;-71
2022/01/17 03:10:18;;;;;;;24.77;16.13;;;-2.00;99.90;;;;;;5151068;27;20181;-71
2022/01/17 03:12:44;;;;;;;28.90;17.17;;;-1.90;99.90;;;;;;5132428;27;20252;-71
2022/01/17 03:15:12;;;;;;;29.50;14.73;;;-1.90;99.90;;;;;;5150969;27;20158;-71
2022/01/17 03:17:41;;;;;;;31.30;15.93;;;-1.80;99.90;;;;;;5151060;27;20142;-71
2022/01/17 03:20:10;;;;;;;37.58;15.23;;;-1.80;99.90;;;;;;5150822;27;20296;-71
2022/01/17 03:22:39;;;;;;;25.92;15.00;;;-1.80;99.90;;;;;;5117626;28;20191;-71
2022/01/17 03:25:05;;;;;;;22.73;14.35;;;-1.90;99.90;;;;;;5111855;28;20171;-71
2022/01/17 03:27:34;;;;;;;26.67;15.27;;;-1.90;99.90;;;;;;5130025;28;20189;-71
2022/01/17 03:30:00;;;;;;;26.50;16.13;;;-2.10;99.90;;;;;;5130234;28;20584;-70
2022/01/17 03:32:26;;;;;;;25.27;14.20;;;-2.20;99.90;;;;;;5111525;28;20191;-71
2022/01/17 03:34:55;;;;;;;31.42;16.70;;;-2.10;99.90;;;;;;5130063;28;20155;-71
2022/01/17 03:37:22;;;;;;;24.30;14.98;;;-2.00;99.90;;;;;;5111722;28;20159;-71
2022/01/17 03:39:48;;;;;;;31.27;14.18;;;-2.10;99.90;;;;;;5130017;28;20151;-71
2022/01/17 03:42:14;;;;;;;29.58;16.25;;;-2.20;99.90;;;;;;5129912;28;20166;-71
2022/01/17 03:44:40;;;;;;;24.75;14.40;;;-2.20;99.90;;;;;;5129899;28;20201;-71
2022/01/17 03:47:08;;;;;;;34.65;15.98;;;-2.30;99.90;;;;;;5111573;28;20170;-71
2022/01/17 03:49:34;;;;;;;26.23;14.38;;;-2.40;99.90;;;;;;5111465;28;20167;-70
2022/01/17 03:52:02;;;;;;;26.33;15.35;;;-2.40;99.90;;;;;;5129706;28;20190;-70
2022/01/17 03:54:28;;;;;;;29.70;14.73;;;-2.40;99.90;;;;;;5129562;28;20214;-70
2022/01/17 03:56:54;;;;;;;31.98;19.60;;;-2.30;99.90;;;;;;5111356;28;20163;-70
2022/01/17 03:59:23;;;;;;;26.65;15.63;;;-2.30;99.90;;;;;;5129465;28;20214;-70
2022/01/17 04:01:50;;;;;;;30.27;15.90;;;-2.30;99.90;;;;;;5111404;28;20673;-71
2022/01/17 04:04:16;;;;;;;24.35;13.93;;;-2.30;99.90;;;;;;5111225;28;20195;-71
2022/01/17 04:06:42;;;;;;;26.70;16.60;;;-2.20;99.90;;;;;;5111110;28;20174;-71
2022/01/17 04:09:09;;;;;;;26.95;14.65;;;-2.30;99.90;;;;;;5129682;28;20161;-71
2022/01/17 04:11:36;;;;;;;21.65;13.52;;;-2.50;99.90;;;;;;5111384;28;20204;-71
2022/01/17 04:14:03;;;;;;;31.58;15.98;;;-2.50;99.90;;;;;;5129648;28;20194;-71
2022/01/17 04:16:29;;;;;;;28.20;14.82;;;-2.50;99.90;;;;;;5111349;28;20660;-71
2022/01/17 04:18:55;;;;;;;27.60;15.60;;;-2.50;99.90;;;;;;5111099;28;20215;-71
2022/01/17 04:21:22;;;;;;;25.10;15.02;;;-2.40;99.90;;;;;;5129630;28;20162;-71
2022/01/17 04:23:50;;;;;;;22.83;13.02;;;-2.50;99.90;;;;;;5129320;28;20194;-71
2022/01/17 04:26:16;;;;;;;28.45;16.05;;;-2.60;99.90;;;;;;5129429;28;20163;-71
2022/01/17 04:28:42;;;;;;;28.75;15.43;;;-2.70;99.90;;;;;;5129501;28;20615;-71
2022/01/17 04:31:08;;;;;;;27.67;15.10;;;-2.70;99.90;;;;;;5129319;28;20190;-71
2022/01/17 04:33:34;;;;;;;28.15;15.98;;;-2.60;99.90;;;;;;5111232;28;20201;-71
2022/01/17 04:36:00;;;;;;;24.92;15.57;;;-2.60;99.90;;;;;;5132227;28;20178;-71
2022/01/17 04:38:26;;;;;;;30.25;16.02;;;-2.50;99.90;;;;;;5133477;28;20169;-71
2022/01/17 04:41:02;;;;;;;23.85;14.13;;;-2.60;99.90;;;;;;5133216;28;20155;-71
2022/01/17 04:46:05;;;;;;;31.30;16.63;;;-2.60;99.90;;;;;;5133253;28;20214;-71
2022/01/17 04:48:35;;;;;;;33.35;15.77;;;-2.60;99.90;;;;;;5133207;28;20237;-71
2022/01/17 04:51:01;;;;;;;27.35;15.10;;;-2.60;99.90;;;;;;5133051;28;20623;-72
2022/01/17 04:53:28;;;;;;;29.40;15.07;;;-2.60;99.90;;;;;;5133098;28;20187;-71
2022/01/17 04:55:55;;;;;;;29.27;16.13;;;-2.60;99.90;;;;;;5132414;28;20155;-69
2022/01/17 04:58:21;;;;;;;33.28;17.27;;;-2.60;99.90;;;;;;5133132;28;20155;-70
2022/01/17 05:00:50;;;;;;;35.25;18.60;;;-2.50;99.90;;;;;;5132607;28;20222;-70
2022/01/17 05:03:25;;;;;;;29.20;15.40;;;-2.40;99.90;;;;;;5132761;28;20213;-70
2022/01/17 05:05:51;;;;;;;29.15;16.83;;;-2.40;99.90;;;;;;5114334;28;20177;-71
2022/01/17 05:08:17;;;;;;;29.15;17.27;;;-2.40;99.90;;;;;;5132794;28;20163;-70
2022/01/17 05:10:50;;;;;;;40.20;18.65;;;-2.40;99.90;;;;;;5132742;28;20174;-70
2022/01/17 05:13:21;;;;;;;31.80;17.60;;;-2.20;99.90;;;;;;5132706;28;20235;-71
2022/01/17 05:16:04;;;;;;;39.88;17.52;;;-2.30;99.90;;;;;;5132437;28;20166;-71
2022/01/17 05:21:02;;;;;;;34.55;19.55;;;-2.50;99.90;;;;;;5132553;28;20186;-69
2022/01/17 05:23:31;;;;;;;30.45;17.10;;;-2.50;99.90;;;;;;5132430;28;20209;-71
2022/01/17 05:25:56;;;;;;;32.78;17.08;;;-2.30;99.90;;;;;;5132467;28;20166;-71
2022/01/17 05:28:22;;;;;;;32.03;17.50;;;-2.30;99.90;;;;;;5132382;28;20150;-70
2022/01/17 05:30:51;;;;;;;30.30;16.83;;;-2.30;99.90;;;;;;5131792;28;20163;-71
2022/01/17 05:33:17;;;;;;;42.90;20.92;;;-2.40;99.90;;;;;;5132132;28;20190;-70
2022/01/17 05:35:43;;;;;;;35.05;18.73;;;-2.40;99.90;;;;;;5132159;28;20159;-70
2022/01/17 05:38:10;;;;;;;38.38;18.50;;;-2.30;99.90;;;;;;5132042;28;20185;-72
2022/01/17 05:40:38;;;;;;;36.95;20.50;;;-2.30;99.90;;;;;;5132038;28;20151;-71
2022/01/17 05:43:04;;;;;;;34.15;17.10;;;-2.20;99.90;;;;;;5113403;28;20228;-71
2022/01/17 05:45:30;;;;;;;35.28;19.13;;;-2.20;99.90;;;;;;5113018;28;20628;-71
2022/01/17 05:47:55;;;;;;;42.03;20.27;;;-2.20;99.90;;;;;;5113528;28;20177;-71
2022/01/17 05:50:21;;;;;;;37.70;19.27;;;-2.10;99.90;;;;;;5131803;28;20185;-71
2022/01/17 05:52:47;;;;;;;34.50;18.02;;;-2.00;99.90;;;;;;5131439;28;20244;-71
2022/01/17 05:55:15;;;;;;;34.30;16.73;;;-1.90;99.90;;;;;;5131694;28;20319;-71
2022/01/17 05:57:42;;;;;;;39.92;20.20;;;-1.90;99.90;;;;;;5113403;28;20169;-71
2022/01/17 06:00:12;;;;;;;32.40;16.73;;;-2.00;99.90;;;;;;5113141;28;20306;-71
2022/01/17 06:02:38;;;;;;;26.25;16.25;;;-2.00;99.90;;;;;;5131613;28;20175;-70
2022/01/17 06:05:04;;;;;;;31.88;18.17;;;-2.00;99.90;;;;;;5131445;28;20159;-71
2022/01/17 06:07:30;;;;;;;34.13;18.05;;;-2.00;99.90;;;;;;5131363;28;20185;-72
2022/01/17 06:09:56;;;;;;;33.13;16.75;;;-1.90;99.90;;;;;;5112866;28;20174;-71
2022/01/17 06:12:25;;;;;;;33.30;17.77;;;-1.90;99.90;;;;;;5112845;28;20198;-71
2022/01/17 06:14:50;;;;;;;30.27;15.60;;;-1.80;99.90;;;;;;5131405;28;20167;-70
2022/01/17 06:17:19;;;;;;;35.58;17.25;;;-1.80;99.90;;;;;;5112724;28;20174;-73
2022/01/17 06:19:45;;;;;;;34.42;18.90;;;-1.80;99.90;;;;;;5113034;28;20166;-74
2022/01/17 06:22:12;;;;;;;32.90;18.58;;;-1.80;99.90;;;;;;5131128;28;20556;-72
2022/01/17 06:24:38;;;;;;;29.15;16.70;;;-1.90;99.90;;;;;;5112391;28;20194;-72
2022/01/17 06:27:04;;;;;;;32.40;17.92;;;-1.90;99.90;;;;;;5130830;28;20162;-73
2022/01/17 06:29:31;;;;;;;30.35;17.02;;;-1.90;99.90;;;;;;5130961;28;20188;-71
2022/01/17 06:31:57;;;;;;;33.30;18.63;;;-1.80;99.90;;;;;;5130959;28;20194;-72
2022/01/17 06:34:25;;;;;;;28.65;15.43;;;-1.80;99.90;;;;;;5130578;28;20195;-73
2022/01/17 06:36:51;;;;;;;31.08;17.65;;;-1.70;99.90;;;;;;5130621;28;20151;-72
2022/01/17 06:39:17;;;;;;;28.42;15.50;;;-1.50;99.90;;;;;;5111948;28;20190;-72
2022/01/17 06:41:43;;;;;;;32.95;17.50;;;-1.60;99.90;;;;;;5130630;28;20163;-72
2022/01/17 06:44:12;;;;;;;29.77;17.15;;;-1.60;99.90;;;;;;5112143;28;20220;-72
2022/01/17 06:46:37;;;;;;;28.45;16.02;;;-1.60;99.90;;;;;;5112429;28;20212;-72
2022/01/17 06:49:03;;;;;;;36.38;17.15;;;-1.60;99.90;;;;;;5130672;28;20147;-72
2022/01/17 06:51:29;;;;;;;26.77;16.45;;;-1.50;99.90;;;;;;5130409;28;20198;-72
2022/01/17 06:53:55;;;;;;;35.20;18.48;;;-1.50;99.90;;;;;;5111777;28;20258;-72
2022/01/17 06:56:22;;;;;;;28.35;15.75;;;-1.40;99.90;;;;;;5130451;28;20151;-72
2022/01/17 06:58:48;;;;;;;26.35;15.85;;;-1.40;99.90;;;;;;5111195;28;20165;-73
2022/01/17 07:01:15;;;;;;;29.85;16.45;;;-1.30;99.90;;;;;;5130331;28;20256;-72
2022/01/17 07:03:43;;;;;;;31.10;15.55;;;-1.20;99.90;;;;;;5130390;28;20516;-72
2022/01/17 07:06:09;;;;;;;29.67;17.00;;;-1.10;99.90;;;;;;5130363;28;20159;-72
2022/01/17 07:08:35;;;;;;;34.25;18.85;;;-1.00;99.90;;;;;;5111761;28;20185;-72
2022/01/17 07:11:01;;;;;;;33.90;18.05;;;-1.00;99.90;;;;;;5111963;28;20214;-72
2022/01/17 07:13:31;;;;;;;32.92;18.60;;;-1.00;99.90;;;;;;5127686;28;20646;-72
2022/01/17 07:15:57;;;;;;;36.80;17.63;;;-1.00;99.90;;;;;;5120487;28;20171;-72
2022/01/17 07:18:23;;;;;;;29.98;17.52;;;-1.00;99.90;;;;;;5091059;28;20187;-72
2022/01/17 07:20:49;;;;;;;33.72;17.48;;;-1.00;99.90;;;;;;5091046;28;20179;-72
2022/01/17 07:23:16;;;;;;;31.60;17.60;;;-0.90;99.90;;;;;;5109672;28;20720;-72
2022/01/17 07:25:42;;;;;;;44.70;21.30;;;-0.90;99.90;;;;;;5109100;28;20219;-72
2022/01/17 07:28:09;;;;;;;35.75;19.65;;;-0.90;99.90;;;;;;5109260;28;20315;-72
2022/01/17 07:30:36;;;;;;;36.60;19.48;;;-1.00;99.90;;;;;;5109500;28;20161;-73
2022/01/17 07:33:04;;;;;;;31.50;18.20;;;-1.00;99.90;;;;;;5109438;28;20187;-73
2022/01/17 07:35:31;;;;;;;46.72;19.98;;;-1.00;99.90;;;;;;5109465;28;20250;-73
2022/01/17 07:37:59;;;;;;;40.72;20.90;;;-1.00;99.90;;;;;;5090987;28;20198;-72
2022/01/17 07:40:29;;;;;;;37.15;17.52;;;-1.00;99.90;;;;;;5109189;28;20155;-73
2022/01/17 07:42:55;;;;;;;36.22;19.10;;;-1.00;99.90;;;;;;5095373;28;20183;-72
2022/01/17 07:45:21;;;;;;;32.60;18.58;;;-0.90;99.90;;;;;;5110857;28;20181;-72
2022/01/17 07:50:20;;;;;;;40.60;19.10;;;-0.90;99.90;;;;;;5129206;28;20169;-72
2022/01/17 07:52:49;;;;;;;36.70;18.67;;;-0.80;99.90;;;;;;5110429;28;20190;-74
2022/01/17 07:55:17;;;;;;;29.40;18.50;;;-0.80;99.90;;;;;;5128025;28;20163;-73
2022/01/17 07:57:42;;;;;;;39.35;19.63;;;-0.80;99.90;;;;;;5129688;28;20182;-73
2022/01/17 08:00:12;;;;;;;34.97;19.65;;;-0.70;99.90;;;;;;5129504;28;20218;-73
2022/01/17 08:02:37;;;;;;;31.33;19.08;;;-0.70;99.90;;;;;;5111403;28;20284;-74
2022/01/17 08:05:04;;;;;;;30.20;19.55;;;-0.60;99.90;;;;;;5129597;28;20155;-74
2022/01/17 08:07:30;;;;;;;37.45;19.58;;;-0.60;99.90;;;;;;5111382;28;20167;-74
2022/01/17 08:09:57;;;;;;;31.90;19.77;;;-0.60;99.90;;;;;;5132496;28;20159;-73
2022/01/17 08:12:23;;;;;;;35.97;21.83;;;-0.50;99.90;;;;;;5133829;28;20189;-73
2022/01/17 08:14:49;;;;;;;45.67;23.15;;;-0.60;99.90;;;;;;5115416;28;20479;-73
2022/01/17 08:17:15;;;;;;;33.55;19.35;;;-0.70;99.90;;;;;;5133874;28;20205;-74
2022/01/17 08:19:41;;;;;;;39.58;21.40;;;-0.70;99.90;;;;;;5133499;28;20191;-73
2022/01/17 08:22:07;;;;;;;44.78;22.40;;;-0.70;99.90;;;;;;5115043;28;20194;-73
2022/01/17 08:24:36;;;;;;;38.63;20.13;;;-0.70;99.90;;;;;;5133682;28;20163;-73
2022/01/17 08:27:02;;;;;;;38.35;22.42;;;-0.60;99.90;;;;;;5114617;28;20193;-73
2022/01/17 08:29:28;;;;;;;46.10;22.08;;;-0.70;99.90;;;;;;5115155;28;20167;-73
2022/01/17 08:32:00;;;;;;;40.45;21.15;;;-0.60;99.90;;;;;;5133159;28;20187;-73
2022/01/17 08:34:26;;;;;;;37.25;21.70;;;-0.60;99.90;;;;;;5133354;28;20151;-73
2022/01/17 08:36:53;;;;;;;39.85;22.90;;;-0.60;99.90;;;;;;5133365;28;20182;-73
2022/01/17 08:39:19;;;;;;;38.97;21.00;;;-0.70;99.90;;;;;;5114737;28;20261;-73
2022/01/17 08:41:47;;;;;;;43.20;18.48;;;-0.70;99.90;;;;;;5114804;28;20181;-74
2022/01/17 08:44:13;;;;;;;37.80;22.02;;;-0.60;99.90;;;;;;5114921;28;20312;-73
2022/01/17 08:46:40;;;;;;;39.15;23.23;;;-0.60;99.90;;;;;;5133318;28;20159;-73
2022/01/17 08:49:06;;;;;;;37.55;20.63;;;-0.60;99.90;;;;;;5133193;28;20151;-73
2022/01/17 08:51:32;;;;;;;40.22;22.10;;;-0.60;99.90;;;;;;5133081;28;20212;-74
2022/01/17 08:53:59;;;;;;;53.35;25.42;;;-0.60;99.90;;;;;;5132827;28;20191;-72
2022/01/17 08:56:27;;;;;;;41.35;23.20;;;-0.50;99.90;;;;;;5114627;28;20163;-73
2022/01/17 08:58:54;;;;;;;39.80;22.42;;;-0.50;99.90;;;;;;5114440;28;20234;-73
2022/01/17 09:01:20;;;;;;;40.88;22.63;;;-0.50;99.90;;;;;;5132977;28;20167;-73
2022/01/17 09:03:47;;;;;;;37.55;21.50;;;-0.50;99.90;;;;;;5132755;28;20201;-73
2022/01/17 09:06:13;;;;;;;33.67;19.10;;;-0.50;99.90;;;;;;5114267;28;20177;-73
2022/01/17 09:08:42;;;;;;;42.10;22.10;;;-0.40;99.90;;;;;;5132686;28;20222;-73
2022/01/17 09:11:09;;;;;;;38.63;21.13;;;-0.40;99.90;;;;;;5132584;28;20214;-73
2022/01/17 09:13:36;;;;;;;38.85;20.65;;;-0.40;99.90;;;;;;5132501;28;20242;-73
2022/01/17 09:16:02;;;;;;;37.92;21.25;;;-0.30;99.90;;;;;;5129484;28;20178;-73
2022/01/17 09:18:28;;;;;;;29.88;19.88;;;-0.30;99.90;;;;;;5102888;28;20167;-73
2022/01/17 09:20:54;;;;;;;37.35;20.15;;;-0.30;99.90;;;;;;5101390;28;20174;-73
2022/01/17 09:23:21;;;;;;;32.88;20.40;;;-0.10;99.90;;;;;;5114156;28;20194;-73
2022/01/17 09:25:48;;;;;;;35.25;19.17;;;-0.10;99.90;;;;;;5118407;28;20164;-73
2022/01/17 09:28:14;;;;;;;37.97;20.25;;;0.00;99.90;;;;;;5111819;28;20166;-72
2022/01/17 09:30:40;;;;;;;30.70;19.52;;;0.20;99.90;;;;;;5111775;28;20171;-73
2022/01/17 09:33:09;;;;;;;32.25;18.67;;;0.20;99.90;;;;;;5111691;28;20289;-73
2022/01/17 09:35:35;;;;;;;37.40;22.25;;;0.20;99.90;;;;;;5111738;28;20152;-72
2022/01/17 09:38:03;;;;;;;35.78;20.33;;;0.20;99.90;;;;;;5111852;28;20160;-73
2022/01/17 09:40:29;;;;;;;40.90;21.80;;;0.10;99.90;;;;;;5111635;28;20151;-73
2022/01/17 09:42:58;;;;;;;32.25;18.15;;;0.10;99.90;;;;;;5111565;28;20198;-74
2022/01/17 09:45:25;;;;;;;32.50;20.55;;;0.10;99.90;;;;;;5111499;28;20595;-74
2022/01/17 09:47:51;;;;;;;32.63;19.73;;;0.20;99.90;;;;;;5111444;28;20156;-73
2022/01/17 09:50:22;;;;;;;35.55;21.13;;;0.20;99.90;;;;;;5096585;28;20170;-73
2022/01/17 09:52:52;;;;;;;34.85;20.38;;;0.30;99.90;;;;;;5131514;28;20206;-73
2022/01/17 09:55:24;;;;;;;36.22;20.02;;;0.40;99.90;;;;;;5131765;28;20169;-73
2022/01/17 09:58:19;;;;;;;30.60;20.13;;;0.40;99.90;;;;;;5131819;28;20162;-73
2022/01/17 10:00:45;;;;;;;33.53;19.27;;;0.50;99.90;;;;;;5093222;28;20226;-73
2022/01/17 10:03:17;;;;;;;33.65;19.73;;;0.60;99.90;;;;;;5110953;28;20190;-73
2022/01/17 10:05:43;;;;;;;31.05;20.27;;;0.70;99.90;;;;;;5111181;28;20173;-73
2022/01/17 10:08:16;;;;;;;37.47;19.48;;;0.70;99.90;;;;;;5111112;28;20214;-73
2022/01/17 10:10:59;;;;;;;34.20;19.95;;;0.80;99.90;;;;;;5092680;28;20167;-73
2022/01/17 10:13:27;;;;;;;30.88;18.50;;;0.90;99.90;;;;;;5111006;28;20194;-73
2022/01/17 10:16:01;;;;;;;36.08;19.33;;;0.90;99.90;;;;;;5111035;28;20156;-73
2022/01/17 10:18:50;;;;;;;35.47;20.20;;;1.10;99.90;;;;;;5110811;28;20178;-73
2022/01/17 10:21:35;;;;;;;33.75;21.00;;;1.40;99.90;;;;;;5092530;28;20175;-74
2022/01/17 10:24:23;;;;;;;38.88;21.35;;;1.50;99.90;;;;;;5110415;28;20195;-73
2022/01/17 10:35:57;;;;;;;36.83;21.88;;;2.60;99.90;;;;;;5044163;28;20192;-74
2022/01/17 10:38:27;;;;;;;41.45;23.27;;;2.70;99.90;;;;;;5048371;28;20627;-73
2022/01/17 10:40:58;;;;;;;32.60;19.20;;;2.70;99.90;;;;;;5031469;28;20623;-73
2022/01/17 10:43:35;;;;;;;32.85;18.27;;;2.30;99.90;;;;;;5047758;28;20201;-73
2022/01/17 10:46:13;;;;;;;33.05;18.52;;;2.40;99.90;;;;;;5031491;28;20172;-73
2022/01/17 10:48:47;;;;;;;34.38;18.05;;;2.70;99.90;;;;;;5047976;28;20169;-74
2022/01/17 10:51:14;;;;;;;31.65;18.88;;;2.40;99.90;;;;;;5052960;28;20196;-73
2022/01/17 10:53:43;;;;;;;35.75;21.05;;;2.60;99.90;;;;;;5067767;28;20254;-74
2022/01/17 10:56:12;;;;;;;41.72;25.58;;;4.10;99.90;;;;;;5050726;28;20179;-73
2022/01/17 10:58:39;;;;;;;37.17;21.25;;;6.20;99.90;;;;;;5050924;28;20181;-74
2022/01/17 11:01:11;;;;;;;29.17;18.42;;;7.40;99.90;;;;;;5070718;28;20247;-73
2022/01/17 11:03:39;;;;;;;34.42;18.83;;;8.20;99.90;;;;;;5109656;27;20225;-73
2022/01/17 11:06:14;;;;;;;30.77;17.33;;;8.90;99.90;;;;;;5132627;27;20174;-73
2022/01/17 11:08:41;;;;;;;27.65;15.90;;;8.30;99.90;;;;;;5132493;27;20334;-73
2022/01/17 11:11:09;;;;;;;25.48;15.77;;;8.60;99.90;;;;;;5150598;27;20154;-72
2022/01/17 11:13:42;;;;;;;25.23;14.95;;;9.20;99.90;;;;;;5151176;27;20189;-72
2022/01/17 11:16:12;;;;;;;24.35;16.98;;;9.60;99.90;;;;;;5151021;27;20690;-73
2022/01/17 11:18:43;;;;;;;25.65;17.25;;;10.00;99.90;;;;;;5132701;27;20182;-72
2022/01/17 11:21:14;;;;;;;32.33;17.10;;;10.10;99.90;;;;;;5130160;28;20147;-72
2022/01/17 11:23:45;;;;;;;26.73;17.98;;;10.30;99.90;;;;;;5129877;28;20193;-72
2022/01/17 11:26:13;;;;;;;27.20;15.52;;;9.90;99.90;;;;;;5093138;28;20163;-72
2022/01/17 11:28:39;;;;;;;23.95;15.68;;;10.20;99.90;;;;;;5091457;28;20186;-72
2022/01/17 11:31:08;;;;;;;37.67;16.73;;;10.00;99.90;;;;;;5109419;28;20159;-72
2022/01/17 11:33:35;;;;;;;32.53;16.85;;;10.00;99.90;;;;;;5091059;28;20190;-72
2022/01/17 11:36:05;;;;;;;25.70;15.00;;;9.10;99.90;;;;;;5109466;28;20156;-74
2022/01/17 11:38:33;;;;;;;21.42;13.05;;;9.90;99.90;;;;;;5090897;28;20186;-74
2022/01/17 11:41:00;;;;;;;6.47;2.33;;;9.40;99.90;;;;;;5109390;28;20159;-73
2022/01/17 11:43:36;;;;;;;10.02;2.63;;;9.80;99.90;;;;;;5108990;28;20214;-74
2022/01/17 11:46:17;;;;;;;14.00;1.92;;;11.30;99.90;;;;;;5109325;28;20167;-72
2022/01/17 11:49:04;;;;;;;20.75;10.30;;;12.20;99.90;;;;;;5109364;28;20191;-73
2022/01/17 11:51:40;;;;;;;21.67;11.40;;;13.20;99.90;;;;;;5095415;28;20229;-73
2022/01/17 11:54:21;;;;;;;19.77;11.70;;;13.80;99.90;;;;;;5091015;28;20239;-72
2022/01/17 11:56:51;;;;;;;5.13;1.38;;;14.00;99.90;;;;;;5109112;28;20153;-72
2022/01/17 11:59:24;;;;;;;1.50;1.13;;;13.60;99.00;;;;;;5109153;28;20640;-73
2022/01/17 12:02:16;;;;;;;0.55;0.25;;;13.60;96.70;;;;;;5128836;28;20190;-72
2022/01/17 12:05:08;;;;;;;0.28;0.28;;;13.90;98.00;;;;;;5111257;28;20170;-71
2022/01/17 12:07:42;;;;;;;0.32;0.30;;;14.60;96.50;;;;;;5128654;28;20162;-72
2022/01/17 12:10:20;;;;;;;0.25;0.17;;;15.50;97.00;;;;;;5129269;28;20160;-71
2022/01/17 12:13:11;;;;;;;0.20;0.20;;;15.30;93.60;;;;;;5129404;28;20220;-71
2022/01/17 12:16:12;;;;;;;2.97;0.25;;;14.50;95.00;;;;;;5110932;28;20162;-72
2022/01/17 12:18:38;;;;;;;0.63;0.10;;;13.20;95.40;;;;;;5128945;28;20173;-72
2022/01/17 12:21:40;;;;;;;3.95;0.50;;;13.20;96.10;;;;;;5129554;28;20193;-72
2022/01/17 12:24:30;;;;;;;1.20;0.45;;;13.50;94.60;;;;;;5080797;28;20243;-72
2022/01/17 12:27:02;;;;;;;1.85;0.30;;;13.00;95.00;;;;;;5108252;28;20156;-72
2022/01/17 12:29:39;;;;;;;0.20;0.20;;;13.50;95.30;;;;;;5090434;28;20230;-71
2022/01/17 12:32:07;;;;;;;0.30;0.10;;;14.50;96.10;;;;;;5090296;28;20308;-71
2022/01/17 12:34:41;;;;;;;0.20;0.17;;;15.60;94.80;;;;;;5108591;28;20155;-72
2022/01/17 12:37:29;;;;;;;1.13;0.20;;;14.60;94.40;;;;;;5108030;28;20214;-71
2022/01/17 12:40:13;;;;;;;0.75;0.32;;;13.70;93.40;;;;;;5108561;28;20651;-72
2022/01/17 12:43:04;;;;;;;0.20;0.20;;;12.40;94.30;;;;;;5108484;28;20227;-71
2022/01/17 12:45:47;;;;;;;0.20;0.20;;;11.40;95.10;;;;;;5108671;28;20167;-71
2022/01/17 12:48:20;;;;;;;0.52;0.15;;;11.20;96.80;;;;;;5107968;28;20171;-72
2022/01/17 12:50:48;;;;;;;1.92;0.20;;;11.10;95.20;;;;;;5109921;28;20292;-71
2022/01/17 12:53:16;;;;;;;0.50;0.50;;;11.10;94.80;;;;;;5127337;28;20209;-71
2022/01/17 12:55:49;;;;;;;2.38;0.88;;;11.10;95.50;;;;;;5128122;28;20274;-72
2022/01/17 12:58:28;;;;;;;2.00;0.28;;;11.10;95.60;;;;;;5132024;28;20166;-74
2022/01/17 13:00:58;;;;;;;0.38;0.10;;;11.00;95.80;;;;;;5152041;27;20217;-73
2022/01/17 13:03:27;;;;;;;0.73;0.55;;;10.90;96.60;;;;;;5153222;27;20213;-72
2022/01/17 13:05:54;;;;;;;0.10;0.10;;;10.90;96.20;;;;;;5135040;27;20174;-73
2022/01/17 13:08:21;;;;;;;5.65;0.40;;;10.90;95.90;;;;;;5152649;27;20154;-73